Time;durP1;ratioP1;P1;durP2;ratioP2;P2;SDS_P1;SDS_P2;PMS_P1;PMS_P2;Temp;Humidity;BMP_temperature;BMP_pressure;BME280_temperature;BME280_humidity;BME280_pressure;Samples;Min_cycle;Max_cycle;Signal;HPM_P1;HPM_P2
2023/10/14 00:00:28;;;;;;;;;;;13.60;99.90;;;;;;5113019;27;19915;-48
2023/10/14 00:02:54;;;;;;;;;;;13.70;99.90;;;;;;5113175;28;20434;-46
2023/10/14 00:05:22;;;;;;;;;;;13.60;99.90;;;;;;5129573;28;20049;-47
2023/10/14 00:07:51;;;;;;;;;;;13.60;99.90;;;;;;5133637;28;20389;-46
2023/10/14 00:10:16;;;;;;;;;;;13.60;99.90;;;;;;5133685;28;19907;-46
2023/10/14 00:12:42;;;;;;;;;;;13.60;99.90;;;;;;5133632;28;19914;-46
2023/10/14 00:15:08;;;;;;;;;;;13.60;99.90;;;;;;5130854;28;19912;-45
2023/10/14 00:17:41;;;;;;;;;;;13.60;99.90;;;;;;5118762;28;19912;-46
2023/10/14 00:20:09;;;;;;;;;;;13.60;99.90;;;;;;5113253;28;19907;-46
2023/10/14 00:22:38;;;;;;;;;;;13.60;99.90;;;;;;5113093;28;19983;-47
2023/10/14 00:25:09;;;;;;;;;;;13.60;99.90;;;;;;5112979;28;19923;-48
2023/10/14 00:27:35;;;;;;;;;;;13.70;99.90;;;;;;5113164;28;19908;-46
2023/10/14 00:30:09;;;;;;;;;;;13.70;99.90;;;;;;5112580;28;19954;-45
2023/10/14 00:32:35;;;;;;;;;;;13.70;99.90;;;;;;5121137;28;19919;-45
2023/10/14 00:35:03;;;;;;;;;;;13.70;99.90;;;;;;5127579;28;19911;-45
2023/10/14 00:37:32;;;;;;;;;;;13.60;99.90;;;;;;5133227;28;19926;-46
2023/10/14 00:40:05;;;;;;;;;;;13.60;99.90;;;;;;5113623;28;19998;-46
2023/10/14 00:42:31;;;;;;;;;;;13.60;99.90;;;;;;5112418;28;19911;-46
2023/10/14 00:44:56;;;;;;;;;;;13.60;99.90;;;;;;5123985;28;19976;-45
2023/10/14 00:47:24;;;;;;;;;;;13.50;99.90;;;;;;5131555;28;19912;-45
2023/10/14 00:49:52;;;;;;;;;;;13.40;99.90;;;;;;5133302;28;19966;-47
2023/10/14 00:52:22;;;;;;;;;;;13.40;99.90;;;;;;5132715;28;19913;-45
2023/10/14 00:59:50;;;;;;;;;;;13.30;99.90;;;;;;5119515;28;19911;-45
2023/10/14 01:02:19;;;;;;;;;;;13.30;99.90;;;;;;5123405;27;19965;-47
2023/10/14 01:04:51;;;;;;;;;;;13.20;99.90;;;;;;5134102;27;19962;-46
2023/10/14 01:07:17;;;;;;;;;;;13.10;99.90;;;;;;5117572;27;19911;-45
2023/10/14 01:12:16;;;;;;;;;;;13.10;99.90;;;;;;5134255;27;20277;-45
2023/10/14 01:14:44;;;;;;;;;;;13.00;99.90;;;;;;5134861;27;20289;-46
2023/10/14 01:17:12;;;;;;;;;;;12.90;99.90;;;;;;5130699;27;19919;-47
2023/10/14 01:19:37;;;;;;;;;;;12.90;99.90;;;;;;5116219;28;19990;-44
2023/10/14 01:22:03;;;;;;;;;;;12.80;99.90;;;;;;5116184;28;20343;-44
2023/10/14 01:24:38;;;;;;;;;;;12.80;99.90;;;;;;5131322;27;19980;-45
2023/10/14 01:27:07;;;;;;;;;;;12.70;99.90;;;;;;5124028;27;19923;-46
2023/10/14 01:29:39;;;;;;;;;;;12.70;99.90;;;;;;5125788;27;19941;-46
2023/10/14 01:32:24;;;;;;;;;;;12.60;99.90;;;;;;5134540;27;19934;-45
2023/10/14 01:34:55;;;;;;;;;;;12.50;99.90;;;;;;5136516;27;20263;-46
2023/10/14 01:37:21;;;;;;;;;;;12.50;99.90;;;;;;5136325;27;19919;-47
2023/10/14 01:39:56;;;;;;;;;;;12.40;99.90;;;;;;5120510;27;19999;-47
2023/10/14 01:42:22;;;;;;;;;;;12.40;99.90;;;;;;5115950;28;19920;-45
2023/10/14 01:44:53;;;;;;;;;;;12.30;99.90;;;;;;5128891;27;19945;-49
2023/10/14 01:47:25;;;;;;;;;;;12.20;99.90;;;;;;5126489;27;20444;-45
2023/10/14 01:49:51;;;;;;;;;;;12.10;99.90;;;;;;5115629;28;19957;-46
2023/10/14 01:52:19;;;;;;;;;;;12.10;99.90;;;;;;5115465;27;20191;-46
2023/10/14 01:54:47;;;;;;;;;;;12.00;99.90;;;;;;5115331;28;20370;-46
2023/10/14 01:57:17;;;;;;;;;;;12.00;99.90;;;;;;5126705;27;20025;-46
2023/10/14 01:59:46;;;;;;;;;;;11.90;99.90;;;;;;5134420;27;19911;-45
2023/10/14 02:02:12;;;;;;;;;;;11.80;99.90;;;;;;5133137;27;19919;-46
2023/10/14 02:04:38;;;;;;;;;;;11.80;99.90;;;;;;5135851;27;19915;-46
2023/10/14 02:07:18;;;;;;;;;;;11.80;99.90;;;;;;5135864;27;20267;-46
2023/10/14 02:09:44;;;;;;;;;;;11.70;99.90;;;;;;5135908;27;19980;-46
2023/10/14 02:12:11;;;;;;;;;;;11.70;99.90;;;;;;5135045;27;20362;-45
2023/10/14 02:14:44;;;;;;;;;;;11.70;99.90;;;;;;5134452;27;19912;-45
2023/10/14 02:17:10;;;;;;;;;;;11.70;99.90;;;;;;5132375;27;19920;-45
2023/10/14 02:19:38;;;;;;;;;;;11.60;99.90;;;;;;5115105;28;19907;-45
2023/10/14 02:22:09;;;;;;;;;;;11.70;99.90;;;;;;5114282;28;20065;-45
2023/10/14 02:24:36;;;;;;;;;;;11.60;99.90;;;;;;5125529;27;20433;-45
2023/10/14 02:27:12;;;;;;;;;;;11.60;99.90;;;;;;5135513;27;19969;-45
2023/10/14 02:29:44;;;;;;;;;;;11.60;99.90;;;;;;5133803;27;19922;-45
2023/10/14 02:32:13;;;;;;;;;;;11.60;99.90;;;;;;5133322;27;19908;-47
2023/10/14 02:34:38;;;;;;;;;;;11.60;99.90;;;;;;5131538;27;19923;-45
2023/10/14 02:37:06;;;;;;;;;;;11.60;99.90;;;;;;5133730;27;19920;-45
2023/10/14 02:39:32;;;;;;;;;;;11.50;99.90;;;;;;5115015;27;19911;-46
2023/10/14 02:42:15;;;;;;;;;;;11.50;99.90;;;;;;5114644;28;19968;-46
2023/10/14 02:44:44;;;;;;;;;;;11.40;99.90;;;;;;5114233;27;20324;-45
2023/10/14 02:47:10;;;;;;;;;;;11.40;99.90;;;;;;5114469;28;20319;-44
2023/10/14 02:49:37;;;;;;;;;;;11.40;99.90;;;;;;5130648;27;19915;-45
2023/10/14 02:52:08;;;;;;;;;;;11.40;99.90;;;;;;5134141;27;19912;-46
2023/10/14 02:54:34;;;;;;;;;;;11.30;99.90;;;;;;5135025;27;19907;-45
2023/10/14 02:57:01;;;;;;;;;;;11.40;99.90;;;;;;5134834;27;19984;-44
2023/10/14 02:59:43;;;;;;;;;;;11.30;99.90;;;;;;5127912;27;19987;-45
2023/10/14 03:02:16;;;;;;;;;;;11.30;99.90;;;;;;5114196;28;20057;-47
2023/10/14 03:05:32;;;;;;;;;;;11.30;99.90;;;;;;5113905;27;19915;-45
2023/10/14 03:07:30;;;;;;;;;;;11.20;99.90;;;;;;5104208;27;20010;-45
2023/10/14 03:12:40;;;;;;;;;;;11.20;99.90;;;;;;5134650;27;20014;-45
2023/10/14 03:15:18;;;;;;;;;;;11.20;99.90;;;;;;5133054;27;19911;-44
2023/10/14 03:17:52;;;;;;;;;;;11.20;99.90;;;;;;5129602;27;20396;-46
2023/10/14 03:22:55;;;;;;;;;;;11.10;99.90;;;;;;5130803;27;19914;-44
2023/10/14 03:25:24;;;;;;;;;;;11.10;99.90;;;;;;5134341;27;19920;-46
2023/10/14 03:27:50;;;;;;;;;;;11.00;99.90;;;;;;5134275;27;20354;-45
2023/10/14 03:30:15;;;;;;;;;;;11.00;99.90;;;;;;5121770;27;19912;-45
2023/10/14 03:32:42;;;;;;;;;;;11.00;99.90;;;;;;5113671;28;20003;-45
2023/10/14 03:35:12;;;;;;;;;;;11.00;99.90;;;;;;5130347;27;19907;-46
2023/10/14 03:37:40;;;;;;;;;;;10.90;99.90;;;;;;5131844;27;19971;-45
2023/10/14 03:42:54;;;;;;;;;;;10.90;99.90;;;;;;5113839;28;19919;-45
2023/10/14 03:45:28;;;;;;;;;;;10.90;99.90;;;;;;5113147;28;19920;-44
2023/10/14 03:47:59;;;;;;;;;;;10.90;99.90;;;;;;5113480;28;19907;-45
2023/10/14 03:50:25;;;;;;;;;;;10.90;99.90;;;;;;5125642;27;19920;-44
2023/10/14 03:52:53;;;;;;;;;;;10.90;99.90;;;;;;5113431;27;19921;-45
2023/10/14 03:55:26;;;;;;;;;;;10.80;99.90;;;;;;5113239;28;19954;-44
2023/10/14 03:57:52;;;;;;;;;;;10.80;99.90;;;;;;5115535;27;20425;-45
2023/10/14 04:00:27;;;;;;;;;;;10.80;99.90;;;;;;5115435;27;20011;-45
2023/10/14 04:02:52;;;;;;;;;;;10.80;99.90;;;;;;5113229;28;19907;-44
2023/10/14 04:05:19;;;;;;;;;;;10.80;99.90;;;;;;5113304;28;20357;-45
2023/10/14 04:07:44;;;;;;;;;;;10.70;99.90;;;;;;5113140;28;19914;-46
2023/10/14 04:10:11;;;;;;;;;;;10.70;99.90;;;;;;5097548;28;20014;-44
2023/10/14 04:12:38;;;;;;;;;;;10.80;99.90;;;;;;5122638;28;20402;-46
2023/10/14 04:17:38;;;;;;;;;;;10.70;99.90;;;;;;5113200;28;20323;-45
2023/10/14 04:22:39;;;;;;;;;;;10.60;99.90;;;;;;5122187;28;19965;-47
2023/10/14 04:27:45;;;;;;;;;;;10.60;99.90;;;;;;5133613;28;19914;-45
2023/10/14 04:30:11;;;;;;;;;;;10.60;99.90;;;;;;5126127;28;20018;-46
2023/10/14 04:32:42;;;;;;;;;;;10.60;99.90;;;;;;5125160;28;20323;-45
2023/10/14 04:35:08;;;;;;;;;;;10.60;99.90;;;;;;5120950;27;19916;-45
2023/10/14 04:37:50;;;;;;;;;;;10.60;99.90;;;;;;5116720;27;19926;-45
2023/10/14 04:40:34;;;;;;;;;;;10.50;99.90;;;;;;5137790;27;19912;-45
2023/10/14 04:43:02;;;;;;;;;;;10.50;99.90;;;;;;5119901;27;19951;-46
2023/10/14 04:45:32;;;;;;;;;;;10.50;99.90;;;;;;5116440;27;19974;-46
2023/10/14 04:47:58;;;;;;;;;;;10.50;99.90;;;;;;5124555;27;19915;-44
2023/10/14 04:50:24;;;;;;;;;;;10.50;99.90;;;;;;5137387;27;20419;-44
2023/10/14 04:52:49;;;;;;;;;;;10.50;99.90;;;;;;5137318;27;19908;-44
2023/10/14 04:55:25;;;;;;;;;;;10.50;99.90;;;;;;5136054;27;19926;-45
2023/10/14 04:58:09;;;;;;;;;;;10.50;99.90;;;;;;5137172;27;19915;-45
2023/10/14 05:00:41;;;;;;;;;;;10.50;99.90;;;;;;5127025;27;19911;-45
2023/10/14 05:03:13;;;;;;;;;;;10.50;99.90;;;;;;5123789;27;19952;-47
2023/10/14 05:05:41;;;;;;;;;;;10.50;99.90;;;;;;5137142;27;19938;-44
2023/10/14 05:08:07;;;;;;;;;;;10.50;99.90;;;;;;5136990;27;19915;-47
2023/10/14 05:10:33;;;;;;;;;;;10.40;99.90;;;;;;5135379;27;20278;-45
2023/10/14 05:12:58;;;;;;;;;;;10.40;99.90;;;;;;5135601;27;20367;-45
2023/10/14 05:15:27;;;;;;;;;;;10.40;99.90;;;;;;5135434;27;19911;-45
2023/10/14 05:17:56;;;;;;;;;;;10.40;99.90;;;;;;5131747;27;19912;-45
2023/10/14 05:23:05;;;;;;;;;;;10.30;99.90;;;;;;5116533;28;19914;-45
2023/10/14 05:25:30;;;;;;;;;;;10.30;99.90;;;;;;5115927;28;20286;-44
2023/10/14 05:27:56;;;;;;;;;;;10.20;99.90;;;;;;5119071;27;19915;-44
2023/10/14 05:30:22;;;;;;;;;;;10.20;99.90;;;;;;5132514;27;20215;-45
2023/10/14 05:32:48;;;;;;;;;;;10.20;99.90;;;;;;5120891;27;19988;-45
2023/10/14 05:35:14;;;;;;;;;;;10.20;99.90;;;;;;5136465;27;19912;-44
2023/10/14 05:37:41;;;;;;;;;;;10.20;99.90;;;;;;5128940;27;20359;-46
2023/10/14 05:40:15;;;;;;;;;;;10.10;99.90;;;;;;5115957;28;19911;-46
2023/10/14 05:42:47;;;;;;;;;;;10.10;99.90;;;;;;5115788;28;20425;-44
2023/10/14 05:45:13;;;;;;;;;;;10.20;99.90;;;;;;5115206;28;19954;-45
2023/10/14 05:47:42;;;;;;;;;;;10.20;99.90;;;;;;5132703;27;20823;-45
2023/10/14 05:50:14;;;;;;;;;;;10.10;99.90;;;;;;5136174;27;20346;-44
2023/10/14 05:52:41;;;;;;;;;;;10.10;99.90;;;;;;5136103;27;19914;-44
2023/10/14 05:55:09;;;;;;;;;;;10.00;99.90;;;;;;5136253;27;19907;-44
2023/10/14 05:57:39;;;;;;;;;;;10.00;99.90;;;;;;5136136;27;19912;-44
2023/10/14 06:00:20;;;;;;;;;;;10.00;99.90;;;;;;5134600;27;20349;-45
2023/10/14 06:02:51;;;;;;;;;;;10.00;99.90;;;;;;5116575;27;20117;-44
2023/10/14 06:05:18;;;;;;;;;;;9.90;99.90;;;;;;5132187;27;20312;-44
2023/10/14 06:07:46;;;;;;;;;;;9.90;99.90;;;;;;5115268;28;19908;-46
2023/10/14 06:10:20;;;;;;;;;;;9.90;99.90;;;;;;5115679;28;19980;-45
2023/10/14 06:12:47;;;;;;;;;;;9.90;99.90;;;;;;5115199;28;19943;-45
2023/10/14 06:15:16;;;;;;;;;;;9.80;99.90;;;;;;5117774;27;19914;-44
2023/10/14 06:17:41;;;;;;;;;;;9.80;99.90;;;;;;5134638;27;20437;-45
2023/10/14 06:20:07;;;;;;;;;;;9.90;99.90;;;;;;5134903;27;20015;-45
2023/10/14 06:22:33;;;;;;;;;;;9.80;99.90;;;;;;5135639;27;19907;-44
2023/10/14 06:24:58;;;;;;;;;;;9.90;99.90;;;;;;5135227;27;20376;-45
2023/10/14 06:27:24;;;;;;;;;;;9.90;99.90;;;;;;5135433;27;19914;-45
2023/10/14 06:29:50;;;;;;;;;;;9.90;99.90;;;;;;5133643;27;19911;-45
2023/10/14 06:32:16;;;;;;;;;;;10.00;99.90;;;;;;5135404;27;19922;-45
2023/10/14 06:34:44;;;;;;;;;;;10.10;99.90;;;;;;5128484;27;19941;-45
2023/10/14 06:37:11;;;;;;;;;;;10.10;99.90;;;;;;5114356;27;19989;-44
2023/10/14 06:39:40;;;;;;;;;;;10.20;99.90;;;;;;5114929;28;19908;-45
2023/10/14 06:42:06;;;;;;;;;;;10.20;99.90;;;;;;5114601;28;19907;-46
2023/10/14 06:44:32;;;;;;;;;;;10.30;99.90;;;;;;5116251;27;20015;-44
2023/10/14 06:46:58;;;;;;;;;;;10.30;99.90;;;;;;5135025;27;20285;-44
2023/10/14 06:49:32;;;;;;;;;;;10.30;99.90;;;;;;5126161;27;19918;-46
2023/10/14 06:51:58;;;;;;;;;;;10.30;99.90;;;;;;5114418;28;19908;-45
2023/10/14 06:54:26;;;;;;;;;;;10.30;99.90;;;;;;5114412;28;19908;-44
2023/10/14 06:56:53;;;;;;;;;;;10.30;99.90;;;;;;5113495;28;20366;-45
2023/10/14 06:59:19;;;;;;;;;;;10.30;99.90;;;;;;5133239;27;19919;-45
2023/10/14 07:01:45;;;;;;;;;;;10.40;99.90;;;;;;5133286;27;20320;-44
2023/10/14 07:04:12;;;;;;;;;;;10.50;99.90;;;;;;5132663;27;19924;-44
2023/10/14 07:06:38;;;;;;;;;;;10.50;99.90;;;;;;5131559;27;19976;-45
2023/10/14 07:09:08;;;;;;;;;;;10.50;99.90;;;;;;5121163;27;20353;-44
2023/10/14 07:11:34;;;;;;;;;;;10.60;99.90;;;;;;5114157;28;19915;-43
2023/10/14 07:13:59;;;;;;;;;;;10.60;99.90;;;;;;5123600;27;19911;-45
2023/10/14 07:16:25;;;;;;;;;;;10.60;99.90;;;;;;5134429;27;19937;-45
2023/10/14 07:18:50;;;;;;;;;;;10.60;99.90;;;;;;5132722;27;20365;-44
2023/10/14 07:21:16;;;;;;;;;;;10.70;99.90;;;;;;5134411;27;19907;-44
2023/10/14 07:23:41;;;;;;;;;;;10.70;99.90;;;;;;5114520;27;19965;-45
2023/10/14 07:26:11;;;;;;;;;;;10.80;99.90;;;;;;5118136;27;19908;-45
2023/10/14 07:28:42;;;;;;;;;;;10.80;99.90;;;;;;5113700;28;20386;-44
2023/10/14 07:31:11;;;;;;;;;;;10.90;99.90;;;;;;5113718;28;19907;-44
2023/10/14 07:33:38;;;;;;;;;;;10.90;99.90;;;;;;5113702;28;19914;-46
2023/10/14 07:36:06;;;;;;;;;;;11.00;99.90;;;;;;5113355;28;19953;-44
2023/10/14 07:38:35;;;;;;;;;;;11.00;99.90;;;;;;5115088;27;19927;-45
2023/10/14 07:41:01;;;;;;;;;;;11.10;99.90;;;;;;5128049;27;20460;-44
2023/10/14 07:43:27;;;;;;;;;;;11.20;99.90;;;;;;5124954;27;20378;-45
2023/10/14 07:45:52;;;;;;;;;;;11.20;99.90;;;;;;5121863;27;19968;-44
2023/10/14 07:48:19;;;;;;;;;;;11.30;99.90;;;;;;5120755;27;20208;-44
2023/10/14 07:50:46;;;;;;;;;;;11.40;99.90;;;;;;5113030;28;20010;-43
2023/10/14 07:53:15;;;;;;;;;;;11.50;99.90;;;;;;5129007;27;20044;-44
2023/10/14 07:55:47;;;;;;;;;;;11.50;99.90;;;;;;5132991;27;19911;-43
2023/10/14 07:58:13;;;;;;;;;;;11.60;99.90;;;;;;5117838;27;19919;-44
2023/10/14 08:00:49;;;;;;;;;;;11.60;99.90;;;;;;5113218;28;19940;-43
2023/10/14 08:03:35;;;;;;;;;;;11.70;99.90;;;;;;5117280;27;19918;-44
2023/10/14 08:06:05;;;;;;;;;;;11.80;99.90;;;;;;5133867;27;19927;-43
2023/10/14 08:08:31;;;;;;;;;;;11.90;99.90;;;;;;5133616;27;19922;-44
2023/10/14 08:10:57;;;;;;;;;;;12.00;99.90;;;;;;5130838;28;19911;-44
2023/10/14 08:13:23;;;;;;;;;;;12.00;99.90;;;;;;5121235;28;19919;-43
2023/10/14 08:15:52;;;;;;;;;;;12.10;99.90;;;;;;5120374;28;19915;-44
2023/10/14 08:18:19;;;;;;;;;;;12.20;99.90;;;;;;5119548;28;20309;-44
2023/10/14 08:20:45;;;;;;;;;;;12.20;99.90;;;;;;5111775;28;19919;-44
2023/10/14 08:23:11;;;;;;;;;;;12.30;99.90;;;;;;5113134;28;19950;-43
2023/10/14 08:25:38;;;;;;;;;;;12.40;99.90;;;;;;5111429;28;19923;-44
2023/10/14 08:28:05;;;;;;;;;;;12.40;99.90;;;;;;5113120;28;19915;-44
2023/10/14 08:30:33;;;;;;;;;;;12.50;99.90;;;;;;5113035;28;19907;-44
2023/10/14 08:33:01;;;;;;;;;;;12.60;99.90;;;;;;5112459;28;19990;-45
2023/10/14 08:35:27;;;;;;;;;;;12.60;99.90;;;;;;5115673;28;19907;-45
2023/10/14 08:37:54;;;;;;;;;;;12.70;99.90;;;;;;5115694;28;19927;-44
2023/10/14 08:40:21;;;;;;;;;;;12.70;99.90;;;;;;5116197;28;19918;-43
2023/10/14 08:42:50;;;;;;;;;;;12.80;99.90;;;;;;5115797;28;20005;-44
2023/10/14 08:45:17;;;;;;;;;;;12.90;99.90;;;;;;5113812;28;19971;-43
2023/10/14 08:47:44;;;;;;;;;;;12.90;99.90;;;;;;5112840;28;19908;-44
2023/10/14 08:50:15;;;;;;;;;;;13.00;99.90;;;;;;5129320;28;19937;-44
2023/10/14 08:52:45;;;;;;;;;;;13.10;99.90;;;;;;5133435;28;19908;-43
2023/10/14 08:55:14;;;;;;;;;;;13.10;99.90;;;;;;5133350;28;19911;-44
2023/10/14 08:57:40;;;;;;;;;;;13.20;99.90;;;;;;5133609;28;19907;-43
2023/10/14 09:00:12;;;;;;;;;;;13.30;99.90;;;;;;5133339;28;19912;-43
2023/10/14 09:02:38;;;;;;;;;;;13.30;99.90;;;;;;5133518;28;19915;-43
2023/10/14 09:05:04;;;;;;;;;;;13.40;99.90;;;;;;5120315;28;19919;-45
2023/10/14 09:07:32;;;;;;;;;;;13.50;99.90;;;;;;5113005;28;19994;-44
2023/10/14 09:09:58;;;;;;;;;;;13.50;99.90;;;;;;5112618;28;19944;-44
2023/10/14 09:12:23;;;;;;;;;;;13.60;99.90;;;;;;5112171;28;20363;-44
2023/10/14 09:14:50;;;;;;;;;;;13.60;99.90;;;;;;5112268;28;20346;-44
2023/10/14 09:17:16;;;;;;;;;;;13.70;99.90;;;;;;5112623;28;20434;-44
2023/10/14 09:19:46;;;;;;;;;;;13.80;99.90;;;;;;5120955;28;19912;-43
2023/10/14 09:22:19;;;;;;;;;;;13.80;99.90;;;;;;5122051;27;19912;-45
2023/10/14 09:24:45;;;;;;;;;;;13.80;99.90;;;;;;5116069;28;19916;-44
2023/10/14 09:27:11;;;;;;;;;;;13.90;99.90;;;;;;5116290;28;19908;-45
2023/10/14 09:29:37;;;;;;;;;;;14.00;99.90;;;;;;5116156;28;19914;-45
2023/10/14 09:32:05;;;;;;;;;;;14.00;99.90;;;;;;5116103;28;20378;-44
2023/10/14 09:34:30;;;;;;;;;;;14.10;99.90;;;;;;5119092;27;19930;-42
2023/10/14 09:36:56;;;;;;;;;;;14.20;99.90;;;;;;5115644;28;20371;-43
2023/10/14 09:39:24;;;;;;;;;;;14.20;99.90;;;;;;5115988;28;19908;-45
2023/10/14 09:41:53;;;;;;;;;;;14.10;99.90;;;;;;5115889;28;19908;-46
2023/10/14 09:44:20;;;;;;;;;;;14.10;99.90;;;;;;5115880;28;20011;-44
2023/10/14 09:46:46;;;;;;;;;;;14.10;99.90;;;;;;5115792;28;20004;-44
2023/10/14 09:49:12;;;;;;;;;;;14.00;99.90;;;;;;5115800;27;19941;-44
2023/10/14 09:51:38;;;;;;;;;;;14.10;99.90;;;;;;5136238;27;20315;-44
2023/10/14 09:54:05;;;;;;;;;;;14.10;99.90;;;;;;5136226;27;19915;-44
2023/10/14 09:56:30;;;;;;;;;;;14.10;99.90;;;;;;5136113;27;19960;-44
2023/10/14 09:58:56;;;;;;;;;;;14.10;99.90;;;;;;5136074;27;19912;-44
2023/10/14 10:01:24;;;;;;;;;;;14.20;99.90;;;;;;5134160;27;19912;-43
2023/10/14 10:03:57;;;;;;;;;;;14.30;99.90;;;;;;5135976;27;19942;-43
2023/10/14 10:06:25;;;;;;;;;;;14.30;99.90;;;;;;5119188;27;19912;-44
2023/10/14 10:08:52;;;;;;;;;;;14.40;99.90;;;;;;5115340;28;20013;-45
2023/10/14 10:11:23;;;;;;;;;;;14.50;99.90;;;;;;5132151;27;19963;-45
2023/10/14 10:13:52;;;;;;;;;;;14.70;99.90;;;;;;5125559;27;19912;-43
2023/10/14 10:16:21;;;;;;;;;;;14.80;99.90;;;;;;5117102;27;19916;-44
2023/10/14 10:18:51;;;;;;;;;;;15.00;99.90;;;;;;5119920;27;20014;-44
2023/10/14 10:21:18;;;;;;;;;;;15.10;99.90;;;;;;5119187;27;19912;-44
2023/10/14 10:23:44;;;;;;;;;;;15.20;99.90;;;;;;5121639;27;20014;-44
2023/10/14 10:26:12;;;;;;;;;;;15.10;99.90;;;;;;5120353;27;20010;-45
2023/10/14 10:28:38;;;;;;;;;;;15.10;99.90;;;;;;5115089;27;19912;-46
2023/10/14 10:31:04;;;;;;;;;;;15.10;99.90;;;;;;5117310;27;20045;-46
2023/10/14 10:33:45;;;;;;;;;;;15.00;99.90;;;;;;5117589;27;19912;-44
2023/10/14 10:36:12;;;;;;;;;;;14.80;99.90;;;;;;5117179;27;19918;-44
2023/10/14 10:38:38;;;;;;;;;;;14.70;99.90;;;;;;5126072;27;19922;-44
2023/10/14 10:41:19;;;;;;;;;;;14.70;99.90;;;;;;5119003;27;19912;-44
2023/10/14 10:43:46;;;;;;;;;;;14.70;99.90;;;;;;5134927;27;19908;-46
2023/10/14 10:46:29;;;;;;;;;;;14.60;99.90;;;;;;5134821;27;19908;-46
2023/10/14 10:48:55;;;;;;;;;;;14.50;99.90;;;;;;5133649;27;20384;-46
2023/10/14 10:51:24;;;;;;;;;;;14.30;99.90;;;;;;5116150;27;20395;-45
2023/10/14 10:53:49;;;;;;;;;;;14.00;99.90;;;;;;5117142;27;19916;-47
2023/10/14 10:56:19;;;;;;;;;;;13.70;99.90;;;;;;5112996;28;19908;-46
2023/10/14 10:58:44;;;;;;;;;;;13.50;99.90;;;;;;5114348;28;19940;-46
2023/10/14 11:01:11;;;;;;;;;;;13.30;99.90;;;;;;5114466;28;20361;-46
2023/10/14 11:03:36;;;;;;;;;;;13.10;99.90;;;;;;5114173;28;20393;-48
2023/10/14 11:06:02;;;;;;;;;;;12.70;99.90;;;;;;5114863;27;19908;-47
2023/10/14 11:08:27;;;;;;;;;;;12.40;99.90;;;;;;5114170;28;19911;-46
2023/10/14 11:10:53;;;;;;;;;;;12.00;99.90;;;;;;5114038;28;19976;-46
2023/10/14 11:13:19;;;;;;;;;;;11.90;99.90;;;;;;5114068;28;20014;-46
2023/10/14 11:15:45;;;;;;;;;;;11.70;99.90;;;;;;5114167;28;19908;-48
2023/10/14 11:18:10;;;;;;;;;;;11.70;99.90;;;;;;5114143;28;19908;-46
2023/10/14 11:20:38;;;;;;;;;;;11.60;99.90;;;;;;5116515;27;19915;-48
2023/10/14 11:23:08;;;;;;;;;;;11.80;99.90;;;;;;5113869;28;20717;-47
2023/10/14 11:25:47;;;;;;;;;;;12.10;99.90;;;;;;5113893;28;19916;-46
2023/10/14 11:28:14;;;;;;;;;;;12.30;99.90;;;;;;5113913;28;19907;-45
2023/10/14 11:30:41;;;;;;;;;;;12.60;99.90;;;;;;5113724;28;20381;-45
2023/10/14 11:33:10;;;;;;;;;;;12.80;99.90;;;;;;5113847;28;19908;-45
2023/10/14 11:35:37;;;;;;;;;;;13.10;99.90;;;;;;5114008;27;19914;-48
2023/10/14 11:38:06;;;;;;;;;;;13.40;99.90;;;;;;5113126;28;19963;-45
2023/10/14 11:40:32;;;;;;;;;;;13.60;99.90;;;;;;5113691;28;19911;-48
2023/10/14 11:42:58;;;;;;;;;;;13.90;99.90;;;;;;5113544;28;19915;-46
2023/10/14 11:45:24;;;;;;;;;;;14.20;99.90;;;;;;5112818;28;20289;-47
2023/10/14 11:47:51;;;;;;;;;;;14.30;99.90;;;;;;5113487;28;20288;-45
2023/10/14 11:50:17;;;;;;;;;;;14.30;99.90;;;;;;5112911;28;19911;-44
2023/10/14 11:52:43;;;;;;;;;;;14.00;99.90;;;;;;5131380;27;19950;-46
2023/10/14 11:55:14;;;;;;;;;;;13.80;99.90;;;;;;5133945;27;19954;-45
2023/10/14 11:57:46;;;;;;;;;;;13.60;99.90;;;;;;5134043;27;19912;-46
2023/10/14 12:00:16;;;;;;;;;;;13.50;99.90;;;;;;5133922;27;20308;-44
2023/10/14 12:02:45;;;;;;;;;;;13.70;99.90;;;;;;5133877;27;20432;-45
2023/10/14 12:05:10;;;;;;;;;;;13.60;99.90;;;;;;5133876;27;19968;-44
2023/10/14 12:07:36;;;;;;;;;;;13.60;99.90;;;;;;5132329;27;19907;-47
2023/10/14 12:10:04;;;;;;;;;;;13.50;99.90;;;;;;5133806;28;19963;-46
2023/10/14 12:12:30;;;;;;;;;;;13.50;99.90;;;;;;5133762;28;20441;-44
2023/10/14 12:14:57;;;;;;;;;;;13.40;99.90;;;;;;5133695;28;19907;-46
2023/10/14 12:17:23;;;;;;;;;;;13.50;99.90;;;;;;5133631;28;20261;-45
2023/10/14 12:19:48;;;;;;;;;;;13.70;99.90;;;;;;5133718;28;19914;-45
2023/10/14 12:22:14;;;;;;;;;;;13.70;99.90;;;;;;5119142;28;19908;-47
2023/10/14 12:24:39;;;;;;;;;;;13.90;99.90;;;;;;5113035;28;19927;-44
2023/10/14 12:27:13;;;;;;;;;;;13.90;99.90;;;;;;5113102;28;20008;-47
2023/10/14 12:29:42;;;;;;;;;;;13.90;99.90;;;;;;5113096;28;19918;-47
2023/10/14 12:32:12;;;;;;;;;;;13.90;99.90;;;;;;5113068;28;19907;-47
2023/10/14 12:34:39;;;;;;;;;;;14.10;99.90;;;;;;5113058;28;19907;-45
2023/10/14 12:37:07;;;;;;;;;;;14.20;99.90;;;;;;5117897;28;19923;-44
2023/10/14 12:39:43;;;;;;;;;;;14.20;99.90;;;;;;5133542;28;19919;-45
2023/10/14 12:42:08;;;;;;;;;;;14.40;99.90;;;;;;5133593;28;20372;-45
2023/10/14 12:44:35;;;;;;;;;;;14.30;99.90;;;;;;5133386;28;20449;-44
2023/10/14 12:47:10;;;;;;;;;;;14.30;99.90;;;;;;5133359;28;19922;-46
2023/10/14 12:49:37;;;;;;;;;;;14.20;99.90;;;;;;5133541;28;20003;-47
2023/10/14 12:52:08;;;;;;;;;;;14.10;99.90;;;;;;5131263;28;19908;-45
2023/10/14 12:54:38;;;;;;;;;;;14.20;99.90;;;;;;5133420;27;19964;-44
2023/10/14 12:57:04;;;;;;;;;;;14.10;99.90;;;;;;5136777;27;19907;-46
2023/10/14 12:59:32;;;;;;;;;;;14.30;99.90;;;;;;5137327;27;20026;-45
2023/10/14 13:02:00;;;;;;;;;;;14.30;99.90;;;;;;5137190;27;19914;-45
2023/10/14 13:04:27;;;;;;;;;;;14.20;99.90;;;;;;5137130;27;19919;-45
2023/10/14 13:06:53;;;;;;;;;;;14.30;99.90;;;;;;5134498;27;19908;-46
2023/10/14 13:09:19;;;;;;;;;;;14.40;99.90;;;;;;5120180;27;19965;-44
2023/10/14 13:11:45;;;;;;;;;;;14.60;99.90;;;;;;5136929;27;19911;-45
2023/10/14 13:14:11;;;;;;;;;;;14.80;99.90;;;;;;5137181;27;19959;-44
2023/10/14 13:16:37;;;;;;;;;;;15.00;99.90;;;;;;5136926;27;20354;-45
2023/10/14 13:19:03;;;;;;;;;;;15.20;99.90;;;;;;5136914;27;19914;-44
2023/10/14 13:21:29;;;;;;;;;;;15.30;99.90;;;;;;5136961;27;19911;-43
2023/10/14 13:24:05;;;;;;;;;;;15.40;99.90;;;;;;5119792;27;19916;-44
2023/10/14 13:26:30;;;;;;;;;;;15.50;99.90;;;;;;5116456;28;19912;-44
2023/10/14 13:28:56;;;;;;;;;;;15.60;99.90;;;;;;5116178;28;19912;-44
2023/10/14 13:31:24;;;;;;;;;;;15.70;99.90;;;;;;5116248;28;19908;-46
2023/10/14 13:33:49;;;;;;;;;;;15.70;99.90;;;;;;5116245;28;19919;-45
2023/10/14 13:36:20;;;;;;;;;;;15.80;99.90;;;;;;5115744;28;19908;-47
2023/10/14 13:38:47;;;;;;;;;;;15.20;99.90;;;;;;5117333;27;20331;-44
2023/10/14 13:41:15;;;;;;;;;;;14.70;99.90;;;;;;5115923;28;20243;-45
2023/10/14 13:43:41;;;;;;;;;;;14.30;99.90;;;;;;5115784;28;20316;-45
2023/10/14 13:46:07;;;;;;;;;;;14.40;99.90;;;;;;5115788;28;19908;-43
2023/10/14 13:48:33;;;;;;;;;;;14.70;99.90;;;;;;5115847;28;19931;-44
2023/10/14 13:51:00;;;;;;;;;;;15.10;99.90;;;;;;5115659;28;19931;-50
2023/10/14 13:53:32;;;;;;;;;;;15.40;99.90;;;;;;5122293;27;20354;-45
2023/10/14 13:55:58;;;;;;;;;;;15.70;98.40;;;;;;5133887;27;19918;-44
2023/10/14 13:58:24;;;;;;;;;;;15.90;99.90;;;;;;5136211;27;20006;-43
2023/10/14 14:00:52;;;;;;;;;;;16.30;99.70;;;;;;5136101;27;20304;-44
2023/10/14 14:03:19;;;;;;;;;;;16.40;98.00;;;;;;5136111;27;19915;-44
2023/10/14 14:05:47;;;;;;;;;;;16.30;95.30;;;;;;5135844;27;19915;-44
2023/10/14 14:08:13;;;;;;;;;;;16.40;96.00;;;;;;5133382;27;19934;-43
2023/10/14 14:10:42;;;;;;;;;;;16.50;98.30;;;;;;5135943;27;20393;-46
2023/10/14 14:13:09;;;;;;;;;;;16.60;95.60;;;;;;5135862;27;20041;-44
2023/10/14 14:15:36;;;;;;;;;;;16.20;98.60;;;;;;5135924;27;19915;-44
2023/10/14 14:18:05;;;;;;;;;;;15.60;98.00;;;;;;5135785;27;19914;-46
2023/10/14 14:20:31;;;;;;;;;;;14.90;99.90;;;;;;5135731;27;20273;-44
2023/10/14 14:22:57;;;;;;;;;;;14.60;99.90;;;;;;5134055;27;19915;-44
2023/10/14 14:25:24;;;;;;;;;;;14.10;99.90;;;;;;5116048;27;20028;-44
2023/10/14 14:27:50;;;;;;;;;;;13.60;99.90;;;;;;5115103;28;20320;-45
2023/10/14 14:30:15;;;;;;;;;;;13.40;99.90;;;;;;5115107;28;19915;-44
2023/10/14 14:32:41;;;;;;;;;;;13.60;99.90;;;;;;5114960;28;19914;-45
2023/10/14 14:35:08;;;;;;;;;;;14.00;99.90;;;;;;5115011;28;19914;-46
2023/10/14 14:37:37;;;;;;;;;;;14.50;99.90;;;;;;5114554;28;20374;-44
2023/10/14 14:40:11;;;;;;;;;;;14.70;99.90;;;;;;5132132;27;19915;-43
2023/10/14 14:42:40;;;;;;;;;;;14.30;99.90;;;;;;5135291;27;19994;-43
2023/10/14 14:45:06;;;;;;;;;;;13.90;99.90;;;;;;5135043;27;20255;-43
2023/10/14 14:47:32;;;;;;;;;;;13.60;99.90;;;;;;5135187;27;19916;-43
2023/10/14 14:49:57;;;;;;;;;;;13.80;99.90;;;;;;5135054;27;19911;-44